Cherry, Illinois
Current Conditions -  °F | °C
As of 11:55 AM on Sunday 25 Jan 2015 (Local Time) from KVYS Reporting Station
Light Snow Light Snow  
Wind Chill: 19°   Ceiling: 900
Heat Index: 32°   Visibility: 4mi
Dew Point: 30°   Wind: 24mph
Humidity: 93%   Direction: 30°NNE
Pressure: 29.77"   Gusts: NA
Location:  41.43°N, 89.21°W
Report Text: KVYS 251755Z AUTO 03021KT 4SM -SN OVC009 00/M01 A2977 RMK AO2 60005 T10011011 10013 21001
Loading
Personal Weather Stations






























Interactive Weather Map New forecast layout! Learn more

10-Day Weather Forecast

Advertisements
Track Severe Weather on mobile